createdAt,value
2023-07-23T00:00:15.584Z,12.16
2023-07-23T00:03:03.592Z,12.12
2023-07-23T00:05:31.504Z,12.10
2023-07-23T00:08:00.715Z,12.10
2023-07-23T00:10:28.688Z,12.18
2023-07-23T00:12:56.679Z,12.31
2023-07-23T00:15:24.539Z,12.39
2023-07-23T00:18:03.443Z,12.44
2023-07-23T00:20:31.481Z,12.47
2023-07-23T00:22:59.419Z,12.47
2023-07-23T00:25:27.329Z,12.44
2023-07-23T00:27:55.210Z,12.48
2023-07-23T00:30:23.274Z,12.53
2023-07-23T00:32:51.372Z,12.56
2023-07-23T00:35:21.363Z,12.59
2023-07-23T00:37:49.306Z,12.55
2023-07-23T00:40:17.342Z,12.53
2023-07-23T00:42:45.590Z,12.50
2023-07-23T00:45:13.498Z,12.54
2023-07-23T00:47:43.915Z,12.60
2023-07-23T00:50:18.227Z,12.57
2023-07-23T00:52:46.367Z,12.55
2023-07-23T00:55:14.342Z,12.61
2023-07-23T00:57:42.318Z,12.69
2023-07-23T01:00:12.053Z,12.71
2023-07-23T01:02:40.057Z,12.75
2023-07-23T01:05:08.834Z,12.76
2023-07-23T01:07:37.679Z,12.76
2023-07-23T01:10:06.641Z,12.74
2023-07-23T01:12:34.944Z,12.74
2023-07-23T01:15:06.022Z,12.75
2023-07-23T01:17:42.544Z,12.76
2023-07-23T01:20:10.690Z,12.75
2023-07-23T01:22:38.970Z,12.79
2023-07-23T01:25:07.238Z,12.84
2023-07-23T01:27:36.114Z,12.89
2023-07-23T01:30:07.922Z,12.89
2023-07-23T01:32:42.036Z,12.90
2023-07-23T01:35:15.467Z,12.93
2023-07-23T01:37:45.785Z,12.99
2023-07-23T01:40:14.916Z,12.99
2023-07-23T01:42:46.545Z,12.92
2023-07-23T01:45:15.118Z,12.90
2023-07-23T01:47:43.148Z,12.92
2023-07-23T01:50:11.156Z,12.97
2023-07-23T01:52:39.124Z,13.03
2023-07-23T01:55:14.087Z,13.04
2023-07-23T01:57:41.977Z,13.06
2023-07-23T02:00:10.713Z,13.14
2023-07-23T02:02:48.005Z,13.20
2023-07-23T02:05:20.326Z,13.25
2023-07-23T02:07:48.342Z,13.26
2023-07-23T02:10:19.419Z,13.25
2023-07-23T02:12:47.727Z,13.26
2023-07-23T02:15:15.808Z,13.27
2023-07-23T02:17:43.865Z,13.33
2023-07-23T02:20:12.831Z,13.33
2023-07-23T02:22:40.972Z,13.36
2023-07-23T02:25:09.405Z,13.42
2023-07-23T02:27:38.256Z,13.45
2023-07-23T02:30:07.040Z,13.42
2023-07-23T02:32:35.117Z,13.38
2023-07-23T02:35:03.650Z,13.40
2023-07-23T02:37:31.648Z,13.38
2023-07-23T02:39:59.707Z,13.36
2023-07-23T02:42:27.897Z,13.31
2023-07-23T02:44:56.001Z,13.31
2023-07-23T02:47:23.841Z,13.29
2023-07-23T02:49:55.760Z,13.33
2023-07-23T02:52:24.714Z,13.40
2023-07-23T02:54:52.743Z,13.43
2023-07-23T02:57:20.599Z,13.50
2023-07-23T02:59:48.653Z,13.51
2023-07-23T03:02:16.596Z,13.51
2023-07-23T03:04:45.249Z,13.51
2023-07-23T03:07:13.184Z,13.51
2023-07-23T03:09:41.043Z,13.53
2023-07-23T03:12:15.191Z,13.54
2023-07-23T03:14:43.599Z,13.60
2023-07-23T03:17:11.487Z,13.68
2023-07-23T03:19:39.463Z,13.71
2023-07-23T03:22:07.427Z,13.73
2023-07-23T03:24:42.880Z,13.74
2023-07-23T03:27:11.032Z,13.75
2023-07-23T03:29:38.868Z,13.77
2023-07-23T03:32:07.454Z,13.76
2023-07-23T03:34:35.636Z,13.81
2023-07-23T03:37:03.555Z,13.80
2023-07-23T03:39:32.337Z,13.77
2023-07-23T03:42:07.829Z,13.78
2023-07-23T03:44:39.705Z,13.75
2023-07-23T03:47:16.020Z,13.74
2023-07-23T03:49:44.659Z,13.73
2023-07-23T03:52:13.216Z,13.70
2023-07-23T03:54:41.268Z,13.73
2023-07-23T03:57:09.185Z,13.81
2023-07-23T03:59:40.880Z,13.86
2023-07-23T04:02:09.773Z,13.96
2023-07-23T04:04:39.429Z,14.02
2023-07-23T04:07:08.691Z,14.04
2023-07-23T04:09:36.598Z,14.04
2023-07-23T04:12:04.615Z,14.06
2023-07-23T04:14:33.247Z,14.11
2023-07-23T04:17:01.225Z,14.18
2023-07-23T04:19:29.125Z,14.25
2023-07-23T04:21:57.680Z,14.31
2023-07-23T04:24:25.659Z,14.38
2023-07-23T04:26:54.802Z,14.41
2023-07-23T04:29:26.653Z,14.37
2023-07-23T04:31:54.650Z,14.36
2023-07-23T04:34:28.824Z,14.42
2023-07-23T04:37:03.879Z,14.44
2023-07-23T04:39:31.846Z,14.46
2023-07-23T04:41:59.727Z,14.47
2023-07-23T04:44:28.348Z,14.56
2023-07-23T04:46:56.223Z,14.74
2023-07-23T04:49:23.986Z,14.84
2023-07-23T04:51:51.887Z,14.78
2023-07-23T04:54:19.780Z,14.79
2023-07-23T04:56:47.763Z,14.88
2023-07-23T04:59:15.578Z,14.95
2023-07-23T05:01:43.557Z,15.00
2023-07-23T05:04:11.615Z,15.10
2023-07-23T05:06:39.638Z,15.18
2023-07-23T05:09:07.831Z,15.27
2023-07-23T05:11:35.780Z,15.42
2023-07-23T05:14:03.688Z,15.49
2023-07-23T05:16:31.695Z,15.59
2023-07-23T05:18:59.583Z,15.68
2023-07-23T05:21:27.750Z,15.75
2023-07-23T05:23:56.059Z,15.81
2023-07-23T05:26:24.061Z,15.84
2023-07-23T05:28:51.970Z,15.84
2023-07-23T05:31:20.332Z,15.92
2023-07-23T05:33:48.236Z,16.01
2023-07-23T05:36:16.107Z,16.06
2023-07-23T05:38:48.131Z,16.09
2023-07-23T05:41:16.084Z,16.14
2023-07-23T05:43:43.992Z,16.24
2023-07-23T05:46:14.352Z,16.34
2023-07-23T05:48:42.420Z,16.40
2023-07-23T05:51:10.464Z,16.49
2023-07-23T05:53:38.409Z,16.56
2023-07-23T05:56:06.636Z,16.69
2023-07-23T05:58:34.552Z,16.80
2023-07-23T06:01:04.858Z,16.84
2023-07-23T06:03:47.992Z,16.96
2023-07-23T06:06:20.798Z,17.03
2023-07-23T06:08:48.919Z,17.08
2023-07-23T06:11:17.182Z,17.10
2023-07-23T06:13:45.150Z,17.16
2023-07-23T06:16:13.243Z,17.26
2023-07-23T06:18:41.216Z,17.39
2023-07-23T06:21:15.705Z,17.52
2023-07-23T06:23:49.719Z,17.58
2023-07-23T06:26:17.648Z,17.61
2023-07-23T06:28:45.503Z,17.70
2023-07-23T06:31:14.825Z,17.75
2023-07-23T06:33:43.003Z,17.81
2023-07-23T06:36:11.124Z,17.92
2023-07-23T06:38:39.212Z,17.97
2023-07-23T06:41:07.961Z,17.98
2023-07-23T06:43:35.844Z,18.01
2023-07-23T06:46:03.843Z,18.10
2023-07-23T06:48:32.073Z,18.18
2023-07-23T06:51:00.260Z,18.23
2023-07-23T06:53:28.253Z,18.27
2023-07-23T06:56:05.506Z,18.35
2023-07-23T06:58:35.916Z,18.41
2023-07-23T07:01:05.281Z,18.46
2023-07-23T07:03:33.845Z,18.56
2023-07-23T07:06:02.465Z,18.67
2023-07-23T07:08:36.444Z,18.73
2023-07-23T07:11:11.540Z,18.83
2023-07-23T07:13:46.549Z,18.94
2023-07-23T07:16:18.393Z,19.01
2023-07-23T07:18:46.903Z,19.06
2023-07-23T07:21:15.202Z,19.12
2023-07-23T07:23:43.103Z,19.20
2023-07-23T07:26:11.091Z,19.31
2023-07-23T07:28:39.060Z,19.44
2023-07-23T07:31:07.189Z,19.53
2023-07-23T07:33:35.045Z,19.59
2023-07-23T07:36:03.926Z,19.64
2023-07-23T07:38:31.911Z,19.68
2023-07-23T07:41:00.042Z,19.75
2023-07-23T07:43:28.488Z,19.83
2023-07-23T07:46:01.538Z,19.93
2023-07-23T07:48:38.967Z,20.13
2023-07-23T07:51:12.510Z,20.23
2023-07-23T07:53:46.276Z,20.31
2023-07-23T07:56:19.049Z,20.32
2023-07-23T07:58:50.734Z,20.37
2023-07-23T08:01:24.057Z,20.49
2023-07-23T08:03:53.028Z,20.52
2023-07-23T08:06:26.074Z,20.53
2023-07-23T08:08:57.694Z,20.55
2023-07-23T08:11:26.806Z,20.60
2023-07-23T08:13:56.831Z,20.66
2023-07-23T08:16:25.296Z,20.73
2023-07-23T08:18:53.637Z,20.79
2023-07-23T08:21:22.060Z,20.84
2023-07-23T08:23:54.778Z,20.93
2023-07-23T08:26:27.184Z,20.89
2023-07-23T08:29:04.191Z,20.90
2023-07-23T08:31:34.067Z,20.91
2023-07-23T08:34:04.959Z,20.88
2023-07-23T08:36:33.032Z,20.80
2023-07-23T08:39:01.166Z,20.75
2023-07-23T08:42:01.302Z,20.74
2023-07-23T08:44:48.194Z,20.70
2023-07-23T08:47:16.895Z,20.66
2023-07-23T08:49:44.856Z,20.62
2023-07-23T08:52:13.870Z,20.58
2023-07-23T08:54:42.996Z,20.51
2023-07-23T08:57:11.577Z,20.45
2023-07-23T08:59:40.836Z,20.38
2023-07-23T09:02:16.409Z,20.34
2023-07-23T09:04:44.289Z,20.27
2023-07-23T09:07:12.978Z,20.13
2023-07-23T09:09:40.979Z,20.06
2023-07-23T09:12:09.433Z,20.05
2023-07-23T09:14:45.442Z,20.04
2023-07-23T09:17:21.643Z,19.97
2023-07-23T09:19:49.767Z,19.94
2023-07-23T09:22:24.637Z,19.90
2023-07-23T09:25:00.664Z,19.89
2023-07-23T09:27:39.047Z,19.92
2023-07-23T09:30:08.193Z,19.88
2023-07-23T09:32:36.176Z,19.85
2023-07-23T09:35:04.537Z,19.84
2023-07-23T09:37:34.592Z,19.87
2023-07-23T09:40:03.247Z,19.92
2023-07-23T09:42:31.382Z,19.97
2023-07-23T09:45:02.685Z,20.04
2023-07-23T09:47:31.116Z,20.04
2023-07-23T09:49:59.788Z,20.01
2023-07-23T09:52:36.135Z,19.97
2023-07-23T09:55:05.603Z,19.95
2023-07-23T09:57:36.120Z,19.94
2023-07-23T10:00:05.840Z,19.93
2023-07-23T10:02:41.277Z,19.94
2023-07-23T10:05:11.623Z,19.98
2023-07-23T10:07:40.613Z,19.99
2023-07-23T10:10:09.368Z,20.03
2023-07-23T10:12:38.354Z,20.03
2023-07-23T10:15:09.394Z,20.12
2023-07-23T10:17:49.033Z,20.20
2023-07-23T10:20:19.446Z,20.41
2023-07-23T10:22:54.255Z,20.61
2023-07-23T10:25:39.326Z,20.81
2023-07-23T10:28:11.121Z,21.08
2023-07-23T10:30:39.309Z,21.24
2023-07-23T10:33:10.568Z,21.33
2023-07-23T10:35:59.793Z,21.36
2023-07-23T10:38:41.766Z,21.41
2023-07-23T10:41:10.006Z,21.51
2023-07-23T10:43:43.905Z,21.66
2023-07-23T10:46:21.757Z,21.84
2023-07-23T10:48:56.695Z,21.87
2023-07-23T10:51:26.700Z,21.93
2023-07-23T10:54:03.791Z,22.09
2023-07-23T10:56:37.098Z,22.26
2023-07-23T10:59:10.299Z,22.31
2023-07-23T11:01:42.307Z,22.43
2023-07-23T11:04:18.073Z,22.62
2023-07-23T11:07:01.904Z,22.80
2023-07-23T11:09:36.288Z,22.90
2023-07-23T11:12:07.385Z,22.95
2023-07-23T11:14:40.419Z,22.95
2023-07-23T11:17:08.395Z,22.96
2023-07-23T11:19:36.408Z,23.13
2023-07-23T11:22:11.014Z,23.10
2023-07-23T11:24:39.060Z,23.11
2023-07-23T11:27:07.359Z,23.13
2023-07-23T11:29:35.887Z,23.14
2023-07-23T11:32:05.330Z,23.20
2023-07-23T11:34:33.988Z,23.28
2023-07-23T11:37:11.385Z,23.34
2023-07-23T11:39:51.799Z,23.38
2023-07-23T11:42:21.668Z,23.38
2023-07-23T11:45:07.213Z,23.55
2023-07-23T11:48:04.772Z,23.58
2023-07-23T11:50:36.215Z,23.60
2023-07-23T11:53:05.553Z,23.74
2023-07-23T11:55:34.230Z,23.70
2023-07-23T11:58:02.341Z,23.59
2023-07-23T12:00:32.950Z,23.53
2023-07-23T12:03:01.341Z,23.58
2023-07-23T12:05:30.708Z,23.53
2023-07-23T12:07:59.933Z,23.40
2023-07-23T12:10:28.163Z,23.30
2023-07-23T12:12:57.265Z,23.22
2023-07-23T12:15:25.205Z,23.14
2023-07-23T12:17:53.583Z,23.05
2023-07-23T12:20:29.841Z,22.96
2023-07-23T12:23:01.314Z,22.86
2023-07-23T12:25:30.875Z,22.75
2023-07-23T12:27:59.101Z,22.65
2023-07-23T12:31:07.440Z,22.59
2023-07-23T12:33:36.286Z,22.55
2023-07-23T12:36:04.997Z,22.55
2023-07-23T12:38:38.210Z,22.57
2023-07-23T12:41:07.743Z,22.57
2023-07-23T12:43:39.967Z,22.59
2023-07-23T12:46:28.557Z,22.61
2023-07-23T12:49:00.125Z,22.67
2023-07-23T12:51:28.976Z,22.69
2023-07-23T12:53:57.189Z,22.75
2023-07-23T12:56:27.820Z,22.87
2023-07-23T12:58:58.915Z,22.92
2023-07-23T13:01:33.938Z,22.99
2023-07-23T13:04:02.239Z,23.13
2023-07-23T13:06:30.981Z,23.20
2023-07-23T13:08:59.770Z,23.25
2023-07-23T13:11:37.942Z,23.26
2023-07-23T13:14:08.622Z,23.27
2023-07-23T13:16:37.177Z,23.30
2023-07-23T13:19:05.378Z,23.34
2023-07-23T13:21:36.625Z,23.34
2023-07-23T13:24:05.412Z,23.35
2023-07-23T13:26:36.611Z,23.31
2023-07-23T13:29:05.146Z,23.28
2023-07-23T13:31:33.470Z,23.34
2023-07-23T13:34:01.849Z,23.36
2023-07-23T13:36:30.756Z,23.35
2023-07-23T13:38:59.322Z,23.33
2023-07-23T13:41:27.636Z,23.31
2023-07-23T13:43:55.663Z,23.33
2023-07-23T13:46:24.000Z,23.35
2023-07-23T13:48:51.944Z,23.35
2023-07-23T13:51:22.279Z,23.30
2023-07-23T13:53:50.641Z,23.28
2023-07-23T13:56:18.900Z,23.27
2023-07-23T13:58:47.620Z,23.25
2023-07-23T14:01:15.856Z,23.27
2023-07-23T14:03:44.479Z,23.24
2023-07-23T14:06:12.910Z,23.20
2023-07-23T14:08:40.965Z,23.19
2023-07-23T14:11:09.385Z,23.17
2023-07-23T14:13:37.612Z,23.14
2023-07-23T14:16:05.619Z,23.11
2023-07-23T14:18:34.430Z,23.11
2023-07-23T14:21:02.398Z,23.12
2023-07-23T14:23:30.684Z,23.10
2023-07-23T14:26:06.265Z,23.09
2023-07-23T14:28:38.663Z,23.09
2023-07-23T14:31:07.434Z,23.10
2023-07-23T14:33:35.743Z,23.11
2023-07-23T14:36:04.863Z,23.12
2023-07-23T14:38:32.917Z,23.11
2023-07-23T14:41:01.319Z,23.06
2023-07-23T14:43:29.594Z,23.00
2023-07-23T14:45:57.996Z,22.90
2023-07-23T14:48:26.031Z,22.88
2023-07-23T14:51:00.853Z,22.85
2023-07-23T14:53:29.476Z,22.83
2023-07-23T14:55:57.393Z,22.76
2023-07-23T14:58:27.210Z,22.72
2023-07-23T15:00:55.495Z,22.70
2023-07-23T15:03:23.576Z,22.66
2023-07-23T15:05:51.757Z,22.62
2023-07-23T15:08:19.780Z,22.60
2023-07-23T15:10:47.654Z,22.59
2023-07-23T15:13:20.410Z,22.56
2023-07-23T15:15:48.465Z,22.55
2023-07-23T15:18:16.821Z,22.55
2023-07-23T15:20:45.069Z,22.55
2023-07-23T15:23:13.286Z,22.61
2023-07-23T15:25:41.798Z,22.70
2023-07-23T15:28:12.033Z,22.80
2023-07-23T15:30:40.137Z,22.91
2023-07-23T15:33:08.504Z,22.98
2023-07-23T15:35:36.440Z,23.00
2023-07-23T15:38:05.670Z,23.04
2023-07-23T15:40:34.809Z,23.10
2023-07-23T15:43:02.848Z,23.17
2023-07-23T15:45:30.727Z,23.27
2023-07-23T15:47:58.835Z,23.39
2023-07-23T15:50:33.292Z,23.48
2023-07-23T15:53:01.325Z,23.60
2023-07-23T15:55:29.120Z,23.66
2023-07-23T15:58:28.011Z,23.65
2023-07-23T16:04:00.250Z,23.63
2023-07-23T16:06:41.140Z,23.65
2023-07-23T16:09:33.931Z,23.65
2023-07-23T16:12:18.918Z,23.65
2023-07-23T16:14:58.238Z,23.64
2023-07-23T16:17:56.518Z,23.60
2023-07-23T16:23:20.910Z,23.62
2023-07-23T16:26:23.514Z,23.54
2023-07-23T16:28:58.410Z,23.49
2023-07-23T16:31:35.702Z,23.47
2023-07-23T16:34:07.280Z,23.47
2023-07-23T16:36:56.242Z,23.52
2023-07-23T16:39:26.536Z,23.53
2023-07-23T16:42:18.081Z,23.50
2023-07-23T16:44:51.065Z,23.45
2023-07-23T16:47:23.597Z,23.37
2023-07-23T16:50:03.236Z,23.28
2023-07-23T16:52:34.537Z,23.20
2023-07-23T16:55:05.566Z,23.12
2023-07-23T16:57:35.961Z,23.06
2023-07-23T17:00:05.052Z,22.97
2023-07-23T17:02:59.627Z,22.88
2023-07-23T17:05:29.883Z,22.80
2023-07-23T17:07:59.025Z,22.75
2023-07-23T17:10:52.392Z,22.69
2023-07-23T17:13:23.096Z,22.63
2023-07-23T17:15:52.211Z,22.62
2023-07-23T17:18:21.400Z,22.57
2023-07-23T17:20:52.043Z,22.52
2023-07-23T17:23:30.028Z,22.47
2023-07-23T17:26:03.099Z,22.43
2023-07-23T17:28:33.537Z,22.38
2023-07-23T17:31:15.668Z,22.31
2023-07-23T17:33:48.632Z,22.28
2023-07-23T17:36:21.008Z,22.25
2023-07-23T17:38:56.920Z,22.22
2023-07-23T17:41:34.709Z,22.21
2023-07-23T17:44:12.997Z,22.19
2023-07-23T17:46:46.062Z,22.11
2023-07-23T17:49:17.728Z,22.04
2023-07-23T17:51:55.154Z,21.96
2023-07-23T17:54:28.006Z,21.88
2023-07-23T17:57:10.622Z,21.82
2023-07-23T17:59:55.660Z,21.73
2023-07-23T18:05:27.302Z,21.57
2023-07-23T18:07:55.337Z,21.45
2023-07-23T18:10:23.739Z,21.36
2023-07-23T18:13:15.371Z,21.28
2023-07-23T18:15:50.795Z,21.19
2023-07-23T18:18:30.125Z,21.12
2023-07-23T18:21:03.186Z,21.03
2023-07-23T18:23:52.920Z,20.96
2023-07-23T18:26:25.747Z,20.90
2023-07-23T18:29:25.523Z,20.83
2023-07-23T18:31:59.460Z,20.79
2023-07-23T18:34:32.695Z,20.74
2023-07-23T18:37:06.864Z,20.70
2023-07-23T18:40:00.279Z,20.62
2023-07-23T18:42:53.792Z,20.53
2023-07-23T18:45:32.181Z,20.47
2023-07-23T18:48:28.616Z,20.43
2023-07-23T18:51:03.154Z,20.40
2023-07-23T18:54:28.580Z,20.38
2023-07-23T18:56:58.781Z,20.36
2023-07-23T18:59:34.927Z,20.35
2023-07-23T19:02:14.476Z,20.33
2023-07-23T19:05:23.592Z,20.31
2023-07-23T19:08:39.920Z,20.30
2023-07-23T19:11:17.326Z,20.28
2023-07-23T19:14:35.975Z,20.24
2023-07-23T19:17:47.946Z,20.16
2023-07-23T19:20:28.627Z,20.04
2023-07-23T19:27:05.722Z,19.85
2023-07-23T19:29:40.469Z,19.76
2023-07-23T19:32:20.416Z,19.67
2023-07-23T19:34:58.937Z,19.64
2023-07-23T19:37:39.598Z,19.62
2023-07-23T19:40:16.076Z,19.60
2023-07-23T19:43:06.244Z,19.58
2023-07-23T19:45:45.982Z,19.55
2023-07-23T19:48:35.401Z,19.52
2023-07-23T19:51:23.232Z,19.50
2023-07-23T19:53:59.399Z,19.49
2023-07-23T19:56:33.367Z,19.46
2023-07-23T19:59:32.888Z,19.45
2023-07-23T20:02:17.971Z,19.45
2023-07-23T20:04:55.965Z,19.42
2023-07-23T20:07:50.563Z,19.41
2023-07-23T20:10:44.250Z,19.37
2023-07-23T20:13:27.322Z,19.33
2023-07-23T20:16:03.334Z,19.32
2023-07-23T20:18:56.660Z,19.32
2023-07-23T20:21:42.397Z,19.31
2023-07-23T20:24:41.405Z,19.26
2023-07-23T20:27:15.879Z,19.25
2023-07-23T20:30:23.109Z,19.24
2023-07-23T20:33:00.976Z,19.21
2023-07-23T20:36:21.743Z,19.16
2023-07-23T20:38:57.856Z,19.09
2023-07-23T20:41:49.949Z,19.06
2023-07-23T20:44:43.793Z,19.14
2023-07-23T20:47:55.895Z,19.18
2023-07-23T20:50:28.681Z,19.18
2023-07-23T20:53:03.096Z,19.18
2023-07-23T20:55:47.761Z,19.18
2023-07-23T20:58:26.759Z,19.20
2023-07-23T21:01:10.318Z,19.19
2023-07-23T21:04:47.290Z,19.18
2023-07-23T21:07:44.688Z,19.16
2023-07-23T21:10:35.869Z,19.17
2023-07-23T21:13:35.152Z,19.15
2023-07-23T21:16:42.126Z,19.08
2023-07-23T21:19:22.276Z,19.05
2023-07-23T21:22:15.489Z,19.05
2023-07-23T21:24:53.878Z,19.06
2023-07-23T21:27:45.506Z,19.10
2023-07-23T21:30:40.287Z,19.11
2023-07-23T21:33:57.557Z,19.08
2023-07-23T21:36:35.851Z,19.06
2023-07-23T21:39:15.014Z,19.02
2023-07-23T21:41:47.325Z,19.01
2023-07-23T21:44:37.826Z,18.98
2023-07-23T21:47:41.385Z,18.96
2023-07-23T21:50:25.591Z,18.92
2023-07-23T21:53:13.474Z,18.88
2023-07-23T21:55:52.302Z,18.84
2023-07-23T21:58:28.411Z,18.82
2023-07-23T22:01:33.482Z,18.80
2023-07-23T22:04:24.841Z,18.78
2023-07-23T22:06:58.013Z,18.79
2023-07-23T22:09:58.437Z,18.83
2023-07-23T22:12:31.820Z,18.85
2023-07-23T22:15:30.805Z,18.86
2023-07-23T22:18:08.829Z,18.87
2023-07-23T22:20:43.130Z,18.85
2023-07-23T22:23:28.277Z,18.80
2023-07-23T22:26:06.146Z,18.77
2023-07-23T22:28:42.602Z,18.77
2023-07-23T22:31:17.579Z,18.75
2023-07-23T22:34:08.689Z,18.73
2023-07-23T22:37:50.460Z,18.72
2023-07-23T22:40:41.589Z,18.69
2023-07-23T22:43:15.357Z,18.65
2023-07-23T22:46:41.166Z,18.60
2023-07-23T22:49:41.093Z,18.52
2023-07-23T22:52:14.081Z,18.55
2023-07-23T22:54:43.649Z,18.58
2023-07-23T22:57:17.566Z,18.61
2023-07-23T22:59:46.870Z,18.61
2023-07-23T23:02:35.036Z,18.60
2023-07-23T23:05:04.080Z,18.63
2023-07-23T23:07:33.731Z,18.62
2023-07-23T23:10:10.508Z,18.59
2023-07-23T23:12:39.072Z,18.57
2023-07-23T23:15:09.146Z,18.58
2023-07-23T23:17:40.114Z,18.56
2023-07-23T23:20:34.615Z,18.52
2023-07-23T23:23:07.246Z,18.42
2023-07-23T23:25:37.208Z,18.33
2023-07-23T23:28:08.267Z,18.27
2023-07-23T23:30:49.469Z,18.24
2023-07-23T23:33:23.172Z,18.16
2023-07-23T23:35:59.783Z,18.08
2023-07-23T23:38:30.186Z,18.00
2023-07-23T23:41:05.246Z,17.91
2023-07-23T23:43:35.668Z,17.86
2023-07-23T23:46:03.792Z,17.77
2023-07-23T23:48:31.994Z,17.59
2023-07-23T23:51:00.227Z,17.51
2023-07-23T23:53:31.633Z,17.38
2023-07-23T23:55:59.632Z,17.25
2023-07-23T23:58:28.552Z,17.19
